sensor_id;sensor_type;location;lat;lon;timestamp;temperature;humidity
34815;DHT22;21030;53.912;15.214;2023-12-20T00:00:31;31.80;25.00
34815;DHT22;21030;53.912;15.214;2023-12-20T00:02:58;31.80;25.80
34815;DHT22;21030;53.912;15.214;2023-12-20T00:05:25;31.40;25.40
34815;DHT22;21030;53.912;15.214;2023-12-20T00:07:53;31.90;25.40
34815;DHT22;21030;53.912;15.214;2023-12-20T00:10:20;31.00;25.60
34815;DHT22;21030;53.912;15.214;2023-12-20T00:12:47;31.40;26.20
34815;DHT22;21030;53.912;15.214;2023-12-20T00:15:14;32.00;25.60
34815;DHT22;21030;53.912;15.214;2023-12-20T00:17:41;32.00;25.30
34815;DHT22;21030;53.912;15.214;2023-12-20T00:20:09;32.20;25.30
34815;DHT22;21030;53.912;15.214;2023-12-20T00:22:36;32.40;25.20
34815;DHT22;21030;53.912;15.214;2023-12-20T00:25:04;31.70;25.00
34815;DHT22;21030;53.912;15.214;2023-12-20T00:27:31;31.50;25.60
34815;DHT22;21030;53.912;15.214;2023-12-20T00:29:58;31.40;26.20
34815;DHT22;21030;53.912;15.214;2023-12-20T00:32:26;31.70;25.50
34815;DHT22;21030;53.912;15.214;2023-12-20T00:34:53;31.90;25.40
34815;DHT22;21030;53.912;15.214;2023-12-20T00:37:21;32.00;25.00
34815;DHT22;21030;53.912;15.214;2023-12-20T00:39:48;32.00;25.00
34815;DHT22;21030;53.912;15.214;2023-12-20T00:42:15;32.20;25.00
34815;DHT22;21030;53.912;15.214;2023-12-20T00:44:42;31.60;24.90
34815;DHT22;21030;53.912;15.214;2023-12-20T00:47:10;31.80;25.20
34815;DHT22;21030;53.912;15.214;2023-12-20T00:49:38;32.40;24.80
34815;DHT22;21030;53.912;15.214;2023-12-20T00:52:05;32.30;24.60
34815;DHT22;21030;53.912;15.214;2023-12-20T00:54:32;31.80;24.70
34815;DHT22;21030;53.912;15.214;2023-12-20T00:56:59;32.10;24.50
34815;DHT22;21030;53.912;15.214;2023-12-20T00:59:26;31.50;24.40
34815;DHT22;21030;53.912;15.214;2023-12-20T01:01:53;31.80;24.80
34815;DHT22;21030;53.912;15.214;2023-12-20T01:04:21;31.90;24.70
34815;DHT22;21030;53.912;15.214;2023-12-20T01:06:48;31.90;24.60
34815;DHT22;21030;53.912;15.214;2023-12-20T01:09:15;31.40;24.60
34815;DHT22;21030;53.912;15.214;2023-12-20T01:11:43;31.00;24.90
34815;DHT22;21030;53.912;15.214;2023-12-20T01:14:10;31.00;25.00
34815;DHT22;21030;53.912;15.214;2023-12-20T01:16:37;30.40;25.30
34815;DHT22;21030;53.912;15.214;2023-12-20T01:19:04;30.10;25.40
34815;DHT22;21030;53.912;15.214;2023-12-20T01:21:31;29.80;25.90
34815;DHT22;21030;53.912;15.214;2023-12-20T01:23:58;30.10;25.70
34815;DHT22;21030;53.912;15.214;2023-12-20T01:26:25;30.50;25.40
34815;DHT22;21030;53.912;15.214;2023-12-20T01:28:52;30.90;25.20
34815;DHT22;21030;53.912;15.214;2023-12-20T01:31:20;31.40;24.70
34815;DHT22;21030;53.912;15.214;2023-12-20T01:33:47;30.60;25.10
34815;DHT22;21030;53.912;15.214;2023-12-20T01:36:14;30.70;25.30
34815;DHT22;21030;53.912;15.214;2023-12-20T01:38:41;31.20;24.70
34815;DHT22;21030;53.912;15.214;2023-12-20T01:41:08;31.50;24.50
34815;DHT22;21030;53.912;15.214;2023-12-20T01:43:36;31.80;24.40
34815;DHT22;21030;53.912;15.214;2023-12-20T01:46:16;31.80;24.00
34815;DHT22;21030;53.912;15.214;2023-12-20T01:48:44;31.20;24.50
34815;DHT22;21030;53.912;15.214;2023-12-20T01:51:11;31.80;24.30
34815;DHT22;21030;53.912;15.214;2023-12-20T01:53:39;32.10;24.00
34815;DHT22;21030;53.912;15.214;2023-12-20T01:56:08;31.90;23.90
34815;DHT22;21030;53.912;15.214;2023-12-20T01:58:40;32.20;23.90
34815;DHT22;21030;53.912;15.214;2023-12-20T02:01:11;32.30;23.80
34815;DHT22;21030;53.912;15.214;2023-12-20T02:03:38;32.10;24.00
34815;DHT22;21030;53.912;15.214;2023-12-20T02:06:06;32.10;23.90
34815;DHT22;21030;53.912;15.214;2023-12-20T02:08:34;32.20;23.90
34815;DHT22;21030;53.912;15.214;2023-12-20T02:11:01;32.20;23.90
34815;DHT22;21030;53.912;15.214;2023-12-20T02:13:29;32.30;23.90
34815;DHT22;21030;53.912;15.214;2023-12-20T02:15:57;32.30;23.80
34815;DHT22;21030;53.912;15.214;2023-12-20T02:18:24;32.00;23.90
34815;DHT22;21030;53.912;15.214;2023-12-20T02:20:51;31.60;24.20
34815;DHT22;21030;53.912;15.214;2023-12-20T02:23:18;31.20;24.60
34815;DHT22;21030;53.912;15.214;2023-12-20T02:25:46;30.50;25.20
34815;DHT22;21030;53.912;15.214;2023-12-20T02:28:13;29.90;26.00
34815;DHT22;21030;53.912;15.214;2023-12-20T02:30:40;29.70;25.90
34815;DHT22;21030;53.912;15.214;2023-12-20T02:33:10;30.30;26.00
34815;DHT22;21030;53.912;15.214;2023-12-20T02:35:40;30.80;25.60
34815;DHT22;21030;53.912;15.214;2023-12-20T02:38:09;30.90;25.00
34815;DHT22;21030;53.912;15.214;2023-12-20T02:40:38;30.90;25.30
34815;DHT22;21030;53.912;15.214;2023-12-20T02:43:15;30.40;25.50
34815;DHT22;21030;53.912;15.214;2023-12-20T02:45:44;30.60;25.50
34815;DHT22;21030;53.912;15.214;2023-12-20T02:48:13;30.30;25.40
34815;DHT22;21030;53.912;15.214;2023-12-20T02:50:41;30.30;25.90
34815;DHT22;21030;53.912;15.214;2023-12-20T02:53:10;30.50;25.70
34815;DHT22;21030;53.912;15.214;2023-12-20T02:55:39;30.10;25.80
34815;DHT22;21030;53.912;15.214;2023-12-20T02:58:08;29.70;26.20
34815;DHT22;21030;53.912;15.214;2023-12-20T03:00:36;29.70;26.40
34815;DHT22;21030;53.912;15.214;2023-12-20T03:03:05;29.90;26.10
34815;DHT22;21030;53.912;15.214;2023-12-20T03:05:34;30.00;26.00
34815;DHT22;21030;53.912;15.214;2023-12-20T03:08:04;29.40;26.20
34815;DHT22;21030;53.912;15.214;2023-12-20T03:10:33;30.10;26.10
34815;DHT22;21030;53.912;15.214;2023-12-20T03:13:01;29.30;26.30
34815;DHT22;21030;53.912;15.214;2023-12-20T03:15:30;29.30;26.50
34815;DHT22;21030;53.912;15.214;2023-12-20T03:17:58;29.10;26.60
34815;DHT22;21030;53.912;15.214;2023-12-20T03:20:30;28.40;27.00
34815;DHT22;21030;53.912;15.214;2023-12-20T03:23:03;27.90;27.80
34815;DHT22;21030;53.912;15.214;2023-12-20T03:25:32;27.60;28.00
34815;DHT22;21030;53.912;15.214;2023-12-20T03:28:00;27.50;28.00
34815;DHT22;21030;53.912;15.214;2023-12-20T03:30:29;27.70;27.80
34815;DHT22;21030;53.912;15.214;2023-12-20T03:32:59;27.60;28.00
34815;DHT22;21030;53.912;15.214;2023-12-20T03:35:28;27.90;27.90
34815;DHT22;21030;53.912;15.214;2023-12-20T03:37:57;28.30;27.60
34815;DHT22;21030;53.912;15.214;2023-12-20T03:40:27;28.20;27.30
34815;DHT22;21030;53.912;15.214;2023-12-20T03:42:56;28.10;27.30
34815;DHT22;21030;53.912;15.214;2023-12-20T03:45:26;28.50;26.80
34815;DHT22;21030;53.912;15.214;2023-12-20T03:47:55;28.90;27.50
34815;DHT22;21030;53.912;15.214;2023-12-20T03:50:24;29.00;26.30
34815;DHT22;21030;53.912;15.214;2023-12-20T03:52:53;29.10;26.40
34815;DHT22;21030;53.912;15.214;2023-12-20T03:55:22;29.30;26.20
34815;DHT22;21030;53.912;15.214;2023-12-20T03:57:51;29.50;26.20
34815;DHT22;21030;53.912;15.214;2023-12-20T04:00:21;29.90;25.50
34815;DHT22;21030;53.912;15.214;2023-12-20T04:02:49;29.50;25.80
34815;DHT22;21030;53.912;15.214;2023-12-20T04:05:17;28.70;26.30
34815;DHT22;21030;53.912;15.214;2023-12-20T04:07:45;28.10;26.80
34815;DHT22;21030;53.912;15.214;2023-12-20T04:10:15;28.50;27.00
34815;DHT22;21030;53.912;15.214;2023-12-20T04:12:43;28.30;27.00
34815;DHT22;21030;53.912;15.214;2023-12-20T04:15:12;28.20;26.90
34815;DHT22;21030;53.912;15.214;2023-12-20T04:17:40;28.40;27.10
34815;DHT22;21030;53.912;15.214;2023-12-20T04:20:09;28.80;26.70
34815;DHT22;21030;53.912;15.214;2023-12-20T04:22:38;29.00;26.60
34815;DHT22;21030;53.912;15.214;2023-12-20T04:25:06;29.00;26.70
34815;DHT22;21030;53.912;15.214;2023-12-20T04:27:35;28.70;26.60
34815;DHT22;21030;53.912;15.214;2023-12-20T04:30:04;28.80;26.80
34815;DHT22;21030;53.912;15.214;2023-12-20T04:32:31;28.50;27.20
34815;DHT22;21030;53.912;15.214;2023-12-20T04:35:00;28.30;27.40
34815;DHT22;21030;53.912;15.214;2023-12-20T04:37:28;28.20;27.60
34815;DHT22;21030;53.912;15.214;2023-12-20T04:39:57;28.00;27.80
34815;DHT22;21030;53.912;15.214;2023-12-20T04:42:24;28.00;28.00
34815;DHT22;21030;53.912;15.214;2023-12-20T04:44:51;27.60;27.70
34815;DHT22;21030;53.912;15.214;2023-12-20T04:47:19;27.80;27.70
34815;DHT22;21030;53.912;15.214;2023-12-20T04:49:46;27.70;28.00
34815;DHT22;21030;53.912;15.214;2023-12-20T04:52:13;27.70;28.10
34815;DHT22;21030;53.912;15.214;2023-12-20T04:54:41;27.60;28.20
34815;DHT22;21030;53.912;15.214;2023-12-20T04:57:10;27.10;28.40
34815;DHT22;21030;53.912;15.214;2023-12-20T04:59:37;27.20;28.60
34815;DHT22;21030;53.912;15.214;2023-12-20T05:02:05;27.50;28.20
34815;DHT22;21030;53.912;15.214;2023-12-20T05:04:33;26.80;29.10
34815;DHT22;21030;53.912;15.214;2023-12-20T05:07:00;27.00;28.80
34815;DHT22;21030;53.912;15.214;2023-12-20T05:09:27;26.70;29.20
34815;DHT22;21030;53.912;15.214;2023-12-20T05:11:54;27.00;29.20
34815;DHT22;21030;53.912;15.214;2023-12-20T05:14:21;26.70;29.30
34815;DHT22;21030;53.912;15.214;2023-12-20T05:16:48;25.90;29.60
34815;DHT22;21030;53.912;15.214;2023-12-20T05:19:15;26.60;29.40
34815;DHT22;21030;53.912;15.214;2023-12-20T05:21:43;26.90;29.20
34815;DHT22;21030;53.912;15.214;2023-12-20T05:24:10;27.00;28.60
34815;DHT22;21030;53.912;15.214;2023-12-20T05:26:37;27.80;28.10
34815;DHT22;21030;53.912;15.214;2023-12-20T05:29:04;28.00;27.50
34815;DHT22;21030;53.912;15.214;2023-12-20T05:31:31;28.50;27.30
34815;DHT22;21030;53.912;15.214;2023-12-20T05:33:58;28.20;27.20
34815;DHT22;21030;53.912;15.214;2023-12-20T05:36:26;28.30;27.40
34815;DHT22;21030;53.912;15.214;2023-12-20T05:38:53;28.60;27.00
34815;DHT22;21030;53.912;15.214;2023-12-20T05:41:20;28.80;26.80
34815;DHT22;21030;53.912;15.214;2023-12-20T05:43:48;28.10;27.50
34815;DHT22;21030;53.912;15.214;2023-12-20T05:46:16;28.00;27.80
34815;DHT22;21030;53.912;15.214;2023-12-20T05:48:43;28.10;27.30
34815;DHT22;21030;53.912;15.214;2023-12-20T05:51:13;27.70;27.70
34815;DHT22;21030;53.912;15.214;2023-12-20T05:53:40;27.10;28.30
34815;DHT22;21030;53.912;15.214;2023-12-20T05:56:07;27.30;28.30
34815;DHT22;21030;53.912;15.214;2023-12-20T05:58:34;27.00;28.00
34815;DHT22;21030;53.912;15.214;2023-12-20T06:01:05;27.10;28.60
34815;DHT22;21030;53.912;15.214;2023-12-20T06:03:32;26.90;28.40
34815;DHT22;21030;53.912;15.214;2023-12-20T06:05:59;27.30;28.40
34815;DHT22;21030;53.912;15.214;2023-12-20T06:08:41;26.20;28.80
34815;DHT22;21030;53.912;15.214;2023-12-20T06:11:10;25.30;29.60
34815;DHT22;21030;53.912;15.214;2023-12-20T06:13:37;24.80;31.00
34815;DHT22;21030;53.912;15.214;2023-12-20T06:16:06;24.20;31.40
34815;DHT22;21030;53.912;15.214;2023-12-20T06:18:34;23.80;32.30
34815;DHT22;21030;53.912;15.214;2023-12-20T06:21:04;24.10;31.80
34815;DHT22;21030;53.912;15.214;2023-12-20T06:23:31;24.20;31.90
34815;DHT22;21030;53.912;15.214;2023-12-20T06:25:58;23.70;32.30
34815;DHT22;21030;53.912;15.214;2023-12-20T06:28:26;24.00;32.50
34815;DHT22;21030;53.912;15.214;2023-12-20T06:30:53;24.80;31.30
34815;DHT22;21030;53.912;15.214;2023-12-20T06:33:22;24.60;31.10
34815;DHT22;21030;53.912;15.214;2023-12-20T06:35:50;24.00;31.80
34815;DHT22;21030;53.912;15.214;2023-12-20T06:38:18;23.40;32.80
34815;DHT22;21030;53.912;15.214;2023-12-20T06:40:45;23.10;33.20
34815;DHT22;21030;53.912;15.214;2023-12-20T06:43:13;22.90;33.60
34815;DHT22;21030;53.912;15.214;2023-12-20T06:45:58;23.70;32.90
34815;DHT22;21030;53.912;15.214;2023-12-20T06:48:28;23.90;32.00
34815;DHT22;21030;53.912;15.214;2023-12-20T06:50:55;24.40;31.80
34815;DHT22;21030;53.912;15.214;2023-12-20T06:53:22;24.60;30.80
34815;DHT22;21030;53.912;15.214;2023-12-20T06:55:49;24.70;30.80
34815;DHT22;21030;53.912;15.214;2023-12-20T06:58:17;24.90;30.30
34815;DHT22;21030;53.912;15.214;2023-12-20T07:00:44;24.70;30.00
34815;DHT22;21030;53.912;15.214;2023-12-20T07:03:11;24.80;30.00
34815;DHT22;21030;53.912;15.214;2023-12-20T07:05:38;24.50;30.80
34815;DHT22;21030;53.912;15.214;2023-12-20T07:08:06;24.30;31.20
34815;DHT22;21030;53.912;15.214;2023-12-20T07:10:33;24.80;30.50
34815;DHT22;21030;53.912;15.214;2023-12-20T07:13:00;25.20;30.00
34815;DHT22;21030;53.912;15.214;2023-12-20T07:15:28;25.10;29.80
34815;DHT22;21030;53.912;15.214;2023-12-20T07:17:56;25.40;29.70
34815;DHT22;21030;53.912;15.214;2023-12-20T07:20:23;24.80;30.00
34815;DHT22;21030;53.912;15.214;2023-12-20T07:22:51;24.70;30.20
34815;DHT22;21030;53.912;15.214;2023-12-20T07:25:18;24.70;30.30
34815;DHT22;21030;53.912;15.214;2023-12-20T07:27:45;24.60;30.70
34815;DHT22;21030;53.912;15.214;2023-12-20T07:30:13;25.40;29.80
34815;DHT22;21030;53.912;15.214;2023-12-20T07:32:41;24.80;30.00
34815;DHT22;21030;53.912;15.214;2023-12-20T07:35:08;24.90;30.10
34815;DHT22;21030;53.912;15.214;2023-12-20T07:37:36;25.70;29.50
34815;DHT22;21030;53.912;15.214;2023-12-20T07:40:03;25.50;29.20
34815;DHT22;21030;53.912;15.214;2023-12-20T07:42:30;25.10;29.80
34815;DHT22;21030;53.912;15.214;2023-12-20T07:44:58;25.30;29.70
34815;DHT22;21030;53.912;15.214;2023-12-20T07:47:26;25.60;29.50
34815;DHT22;21030;53.912;15.214;2023-12-20T07:49:53;25.40;29.70
34815;DHT22;21030;53.912;15.214;2023-12-20T07:52:20;24.30;30.50
34815;DHT22;21030;53.912;15.214;2023-12-20T07:54:49;24.20;31.10
34815;DHT22;21030;53.912;15.214;2023-12-20T07:57:17;24.70;31.00
34815;DHT22;21030;53.912;15.214;2023-12-20T07:59:44;24.30;31.10
34815;DHT22;21030;53.912;15.214;2023-12-20T08:02:11;24.20;31.70
34815;DHT22;21030;53.912;15.214;2023-12-20T08:04:38;24.80;31.10
34815;DHT22;21030;53.912;15.214;2023-12-20T08:07:05;23.80;31.80
34815;DHT22;21030;53.912;15.214;2023-12-20T08:09:33;23.70;32.60
34815;DHT22;21030;53.912;15.214;2023-12-20T08:12:00;24.30;32.10
34815;DHT22;21030;53.912;15.214;2023-12-20T08:14:28;26.10;30.00
34815;DHT22;21030;53.912;15.214;2023-12-20T08:16:55;26.90;29.60
34815;DHT22;21030;53.912;15.214;2023-12-20T08:19:22;27.10;28.40
34815;DHT22;21030;53.912;15.214;2023-12-20T08:21:49;27.10;28.80
34815;DHT22;21030;53.912;15.214;2023-12-20T08:24:16;26.60;28.50
34815;DHT22;21030;53.912;15.214;2023-12-20T08:26:43;25.60;29.60
34815;DHT22;21030;53.912;15.214;2023-12-20T08:29:13;25.90;30.00
34815;DHT22;21030;53.912;15.214;2023-12-20T08:31:40;25.40;29.70
34815;DHT22;21030;53.912;15.214;2023-12-20T08:34:07;25.50;29.90
34815;DHT22;21030;53.912;15.214;2023-12-20T08:36:36;24.90;30.60
34815;DHT22;21030;53.912;15.214;2023-12-20T08:39:03;25.10;30.30
34815;DHT22;21030;53.912;15.214;2023-12-20T08:41:33;24.90;30.70
34815;DHT22;21030;53.912;15.214;2023-12-20T08:44:02;24.80;31.30
34815;DHT22;21030;53.912;15.214;2023-12-20T08:46:30;24.00;31.90
34815;DHT22;21030;53.912;15.214;2023-12-20T08:48:57;23.70;32.60
34815;DHT22;21030;53.912;15.214;2023-12-20T08:51:25;23.10;33.90
34815;DHT22;21030;53.912;15.214;2023-12-20T08:53:52;23.10;34.20
34815;DHT22;21030;53.912;15.214;2023-12-20T08:56:19;22.90;34.10
34815;DHT22;21030;53.912;15.214;2023-12-20T08:58:47;23.10;34.30
34815;DHT22;21030;53.912;15.214;2023-12-20T09:01:14;23.80;33.70
34815;DHT22;21030;53.912;15.214;2023-12-20T09:03:43;23.70;32.90
34815;DHT22;21030;53.912;15.214;2023-12-20T09:06:10;24.10;32.80
34815;DHT22;21030;53.912;15.214;2023-12-20T09:08:38;24.00;32.50
34815;DHT22;21030;53.912;15.214;2023-12-20T09:11:05;23.90;33.60
34815;DHT22;21030;53.912;15.214;2023-12-20T09:13:32;24.80;32.50
34815;DHT22;21030;53.912;15.214;2023-12-20T09:16:00;25.90;32.20
34815;DHT22;21030;53.912;15.214;2023-12-20T09:18:27;26.00;30.00
34815;DHT22;21030;53.912;15.214;2023-12-20T09:20:54;25.80;29.80
34815;DHT22;21030;53.912;15.214;2023-12-20T09:23:22;25.20;31.20
34815;DHT22;21030;53.912;15.214;2023-12-20T09:25:49;26.30;30.10
34815;DHT22;21030;53.912;15.214;2023-12-20T09:28:16;26.50;29.50
34815;DHT22;21030;53.912;15.214;2023-12-20T09:30:43;26.30;29.70
34815;DHT22;21030;53.912;15.214;2023-12-20T09:33:12;26.30;29.80
34815;DHT22;21030;53.912;15.214;2023-12-20T09:35:40;25.10;30.20
34815;DHT22;21030;53.912;15.214;2023-12-20T09:38:07;25.50;30.40
34815;DHT22;21030;53.912;15.214;2023-12-20T09:40:35;24.60;31.30
34815;DHT22;21030;53.912;15.214;2023-12-20T09:43:04;24.50;32.20
34815;DHT22;21030;53.912;15.214;2023-12-20T09:45:32;25.20;31.60
34815;DHT22;21030;53.912;15.214;2023-12-20T09:48:03;26.70;30.30
34815;DHT22;21030;53.912;15.214;2023-12-20T09:50:31;25.40;29.80
34815;DHT22;21030;53.912;15.214;2023-12-20T09:53:01;25.70;30.60
34815;DHT22;21030;53.912;15.214;2023-12-20T09:55:30;25.70;30.50
34815;DHT22;21030;53.912;15.214;2023-12-20T09:58:00;24.70;31.40
34815;DHT22;21030;53.912;15.214;2023-12-20T10:00:27;24.90;31.50
34815;DHT22;21030;53.912;15.214;2023-12-20T10:02:58;25.10;31.70
34815;DHT22;21030;53.912;15.214;2023-12-20T10:05:32;24.00;31.90
34815;DHT22;21030;53.912;15.214;2023-12-20T10:08:01;24.00;33.30
34815;DHT22;21030;53.912;15.214;2023-12-20T10:10:29;24.50;32.60
34815;DHT22;21030;53.912;15.214;2023-12-20T10:13:12;24.00;33.10
34815;DHT22;21030;53.912;15.214;2023-12-20T10:15:40;24.70;32.10
34815;DHT22;21030;53.912;15.214;2023-12-20T10:18:09;24.10;32.70
34815;DHT22;21030;53.912;15.214;2023-12-20T10:20:39;25.20;31.90
34815;DHT22;21030;53.912;15.214;2023-12-20T10:23:07;25.70;30.80
34815;DHT22;21030;53.912;15.214;2023-12-20T10:25:34;26.00;31.00
34815;DHT22;21030;53.912;15.214;2023-12-20T10:28:16;24.60;31.40
34815;DHT22;21030;53.912;15.214;2023-12-20T10:30:48;24.10;32.30
34815;DHT22;21030;53.912;15.214;2023-12-20T10:33:24;24.70;32.10
34815;DHT22;21030;53.912;15.214;2023-12-20T10:35:53;25.00;31.70
34815;DHT22;21030;53.912;15.214;2023-12-20T10:38:21;24.10;32.80
34815;DHT22;21030;53.912;15.214;2023-12-20T10:40:49;22.70;34.10
34815;DHT22;21030;53.912;15.214;2023-12-20T10:43:19;23.20;35.80
34815;DHT22;21030;53.912;15.214;2023-12-20T10:45:46;23.40;33.90
34815;DHT22;21030;53.912;15.214;2023-12-20T10:48:14;23.90;33.40
34815;DHT22;21030;53.912;15.214;2023-12-20T10:50:43;23.80;33.50
34815;DHT22;21030;53.912;15.214;2023-12-20T10:53:12;23.80;33.30
34815;DHT22;21030;53.912;15.214;2023-12-20T10:55:40;23.20;34.30
34815;DHT22;21030;53.912;15.214;2023-12-20T10:58:08;23.80;33.80
34815;DHT22;21030;53.912;15.214;2023-12-20T11:00:39;24.90;32.40
34815;DHT22;21030;53.912;15.214;2023-12-20T11:03:11;24.80;32.20
34815;DHT22;21030;53.912;15.214;2023-12-20T11:06:46;24.90;31.60
34815;DHT22;21030;53.912;15.214;2023-12-20T11:09:41;25.60;31.20
34815;DHT22;21030;53.912;15.214;2023-12-20T11:14:35;24.00;32.10
34815;DHT22;21030;53.912;15.214;2023-12-20T11:22:20;24.80;31.90
34815;DHT22;21030;53.912;15.214;2023-12-20T11:24:49;25.00;31.80
34815;DHT22;21030;53.912;15.214;2023-12-20T11:27:18;25.20;31.70
34815;DHT22;21030;53.912;15.214;2023-12-20T11:29:57;25.30;30.60
34815;DHT22;21030;53.912;15.214;2023-12-20T11:34:57;25.20;32.50
34815;DHT22;21030;53.912;15.214;2023-12-20T11:37:29;24.90;31.90
34815;DHT22;21030;53.912;15.214;2023-12-20T11:40:18;24.60;32.80
34815;DHT22;21030;53.912;15.214;2023-12-20T11:42:49;25.10;32.30
34815;DHT22;21030;53.912;15.214;2023-12-20T11:45:22;25.80;31.50
34815;DHT22;21030;53.912;15.214;2023-12-20T11:47:56;25.60;30.60
34815;DHT22;21030;53.912;15.214;2023-12-20T11:50:25;25.20;31.20
34815;DHT22;21030;53.912;15.214;2023-12-20T11:52:54;24.10;32.30
34815;DHT22;21030;53.912;15.214;2023-12-20T11:55:22;23.40;33.30
34815;DHT22;21030;53.912;15.214;2023-12-20T11:57:51;23.80;34.40
34815;DHT22;21030;53.912;15.214;2023-12-20T12:00:18;24.50;32.70
34815;DHT22;21030;53.912;15.214;2023-12-20T12:02:59;24.20;32.30
34815;DHT22;21030;53.912;15.214;2023-12-20T12:05:26;24.90;32.40
34815;DHT22;21030;53.912;15.214;2023-12-20T12:07:53;25.30;31.20
34815;DHT22;21030;53.912;15.214;2023-12-20T12:10:22;25.20;30.90
34815;DHT22;21030;53.912;15.214;2023-12-20T12:12:49;25.00;31.20
34815;DHT22;21030;53.912;15.214;2023-12-20T12:15:17;24.30;32.20
34815;DHT22;21030;53.912;15.214;2023-12-20T12:17:44;24.20;32.60
34815;DHT22;21030;53.912;15.214;2023-12-20T12:20:11;24.20;32.20
34815;DHT22;21030;53.912;15.214;2023-12-20T12:22:39;24.10;32.80
34815;DHT22;21030;53.912;15.214;2023-12-20T12:25:11;23.70;33.70
34815;DHT22;21030;53.912;15.214;2023-12-20T12:27:42;24.00;33.00
34815;DHT22;21030;53.912;15.214;2023-12-20T12:30:10;23.50;33.80
34815;DHT22;21030;53.912;15.214;2023-12-20T12:32:40;23.70;33.70
34815;DHT22;21030;53.912;15.214;2023-12-20T12:35:08;23.30;34.20
34815;DHT22;21030;53.912;15.214;2023-12-20T12:37:40;23.20;34.40
34815;DHT22;21030;53.912;15.214;2023-12-20T12:40:13;24.00;33.60
34815;DHT22;21030;53.912;15.214;2023-12-20T12:42:41;24.00;33.70
34815;DHT22;21030;53.912;15.214;2023-12-20T12:45:09;24.20;33.00
34815;DHT22;21030;53.912;15.214;2023-12-20T12:47:38;23.80;33.50
34815;DHT22;21030;53.912;15.214;2023-12-20T12:50:06;23.40;33.70
34815;DHT22;21030;53.912;15.214;2023-12-20T12:52:33;22.50;35.40
34815;DHT22;21030;53.912;15.214;2023-12-20T12:55:02;23.20;35.10
34815;DHT22;21030;53.912;15.214;2023-12-20T12:57:32;22.50;35.30
34815;DHT22;21030;53.912;15.214;2023-12-20T12:59:59;22.60;36.00
34815;DHT22;21030;53.912;15.214;2023-12-20T13:02:27;22.60;36.60
34815;DHT22;21030;53.912;15.214;2023-12-20T13:04:54;22.30;36.70
34815;DHT22;21030;53.912;15.214;2023-12-20T13:07:21;21.70;37.00
34815;DHT22;21030;53.912;15.214;2023-12-20T13:09:48;21.70;38.10
34815;DHT22;21030;53.912;15.214;2023-12-20T13:12:15;22.20;36.80
34815;DHT22;21030;53.912;15.214;2023-12-20T13:14:42;23.10;36.00
34815;DHT22;21030;53.912;15.214;2023-12-20T13:17:09;23.70;34.70
34815;DHT22;21030;53.912;15.214;2023-12-20T13:19:37;23.80;34.10
34815;DHT22;21030;53.912;15.214;2023-12-20T13:22:04;23.80;34.20
34815;DHT22;21030;53.912;15.214;2023-12-20T13:24:32;24.40;33.30
34815;DHT22;21030;53.912;15.214;2023-12-20T13:26:59;25.00;33.00
34815;DHT22;21030;53.912;15.214;2023-12-20T13:29:26;25.20;32.40
34815;DHT22;21030;53.912;15.214;2023-12-20T13:31:56;25.40;32.00
34815;DHT22;21030;53.912;15.214;2023-12-20T13:34:24;24.20;32.40
34815;DHT22;21030;53.912;15.214;2023-12-20T13:36:51;23.60;33.80
34815;DHT22;21030;53.912;15.214;2023-12-20T13:39:19;23.30;34.60
34815;DHT22;21030;53.912;15.214;2023-12-20T13:41:46;23.80;34.10
34815;DHT22;21030;53.912;15.214;2023-12-20T13:44:13;23.00;34.40
34815;DHT22;21030;53.912;15.214;2023-12-20T13:46:43;22.90;35.60
34815;DHT22;21030;53.912;15.214;2023-12-20T13:49:13;22.30;35.10
34815;DHT22;21030;53.912;15.214;2023-12-20T13:51:40;21.60;36.70
34815;DHT22;21030;53.912;15.214;2023-12-20T13:54:07;22.10;35.80
34815;DHT22;21030;53.912;15.214;2023-12-20T13:56:35;21.80;36.00
34815;DHT22;21030;53.912;15.214;2023-12-20T13:59:12;22.40;35.20
34815;DHT22;21030;53.912;15.214;2023-12-20T14:01:40;22.90;35.10
34815;DHT22;21030;53.912;15.214;2023-12-20T14:04:07;23.50;33.20
34815;DHT22;21030;53.912;15.214;2023-12-20T14:06:35;24.00;33.10
34815;DHT22;21030;53.912;15.214;2023-12-20T14:09:02;23.80;32.40
34815;DHT22;21030;53.912;15.214;2023-12-20T14:11:30;24.80;31.50
34815;DHT22;21030;53.912;15.214;2023-12-20T14:13:57;25.90;30.00
34815;DHT22;21030;53.912;15.214;2023-12-20T14:16:25;25.60;29.20
34815;DHT22;21030;53.912;15.214;2023-12-20T14:18:52;25.60;29.50
34815;DHT22;21030;53.912;15.214;2023-12-20T14:21:19;25.70;28.60
34815;DHT22;21030;53.912;15.214;2023-12-20T14:23:46;25.60;28.90
34815;DHT22;21030;53.912;15.214;2023-12-20T14:26:15;24.90;29.10
34815;DHT22;21030;53.912;15.214;2023-12-20T14:28:42;25.00;29.30
34815;DHT22;21030;53.912;15.214;2023-12-20T14:31:10;25.80;28.60
34815;DHT22;21030;53.912;15.214;2023-12-20T14:33:38;26.40;27.80
34815;DHT22;21030;53.912;15.214;2023-12-20T14:36:06;25.50;28.50
34815;DHT22;21030;53.912;15.214;2023-12-20T14:38:34;25.20;29.00
34815;DHT22;21030;53.912;15.214;2023-12-20T14:41:03;24.70;28.90
34815;DHT22;21030;53.912;15.214;2023-12-20T14:43:32;24.70;29.50
34815;DHT22;21030;53.912;15.214;2023-12-20T14:45:59;24.20;29.40
34815;DHT22;21030;53.912;15.214;2023-12-20T14:48:27;24.40;29.50
34815;DHT22;21030;53.912;15.214;2023-12-20T14:50:54;24.70;29.50
34815;DHT22;21030;53.912;15.214;2023-12-20T14:53:21;25.30;28.60
34815;DHT22;21030;53.912;15.214;2023-12-20T14:55:49;24.90;29.10
34815;DHT22;21030;53.912;15.214;2023-12-20T14:58:17;24.50;28.90
34815;DHT22;21030;53.912;15.214;2023-12-20T15:00:44;25.10;28.60
34815;DHT22;21030;53.912;15.214;2023-12-20T15:03:12;24.00;29.10
34815;DHT22;21030;53.912;15.214;2023-12-20T15:05:39;23.80;29.50
34815;DHT22;21030;53.912;15.214;2023-12-20T15:08:07;23.70;30.60
34815;DHT22;21030;53.912;15.214;2023-12-20T15:10:34;24.80;29.60
34815;DHT22;21030;53.912;15.214;2023-12-20T15:13:02;24.90;28.90
34815;DHT22;21030;53.912;15.214;2023-12-20T15:15:29;24.90;29.30
34815;DHT22;21030;53.912;15.214;2023-12-20T15:17:57;25.60;29.20
34815;DHT22;21030;53.912;15.214;2023-12-20T15:20:24;25.70;28.50
34815;DHT22;21030;53.912;15.214;2023-12-20T15:22:51;25.30;28.80
34815;DHT22;21030;53.912;15.214;2023-12-20T15:25:21;25.20;28.70
34815;DHT22;21030;53.912;15.214;2023-12-20T15:27:49;24.30;28.80
34815;DHT22;21030;53.912;15.214;2023-12-20T15:30:20;23.70;29.80
34815;DHT22;21030;53.912;15.214;2023-12-20T15:32:47;23.30;30.50